Rumpus Ridge, South Dakota
Current Conditions -  °F | °C
As of 3:56 AM on Saturday 29 Nov 2014 (Local Time) from KFSD Reporting Station
Haze Haze  
Wind Chill: 19°   Ceiling: Unl
Heat Index: 19°   Visibility: 6mi
Dew Point: 17°   Wind: 0mph
Humidity: 92%   Direction: NA
Pressure: 29.46"   Gusts: NA
Location:  43.5855°N, 97.3085°W
Report Text: KFSD 290956Z AUTO 00000KT 6SM BR CLR M07/M08 A2946 RMK AO2 SLP995 I1000 T10721083
Loading
Personal Weather Stations






























Interactive Weather Map New forecast layout! Learn more

10-Day Weather Forecast

Advertisements
Track Severe Weather on mobile